createdAt,value
2018-07-10T02:16:44.388Z,3
2018-07-10T02:28:45.113Z,7
2018-07-10T02:34:45.485Z,10
2018-07-10T02:42:45.988Z,13
2018-07-10T02:43:46.032Z,17
2018-07-10T02:44:46.094Z,20
2018-07-10T02:45:16.138Z,23
2018-07-10T02:45:46.205Z,27
2018-07-10T02:46:16.246Z,30
2018-07-10T02:46:46.248Z,33
2018-07-10T02:47:16.290Z,37
2018-07-10T02:47:46.318Z,43
2018-07-10T02:48:16.366Z,47
2018-07-10T02:48:46.376Z,53
2018-07-10T02:49:16.548Z,57
2018-07-10T02:49:46.450Z,60
2018-07-10T02:50:16.504Z,63
2018-07-10T02:50:46.520Z,67
2018-07-10T02:51:16.545Z,70
2018-07-10T02:51:46.581Z,73
2018-07-10T02:52:16.612Z,77
2018-07-10T02:52:46.636Z,80
2018-07-10T02:53:16.678Z,83
2018-07-10T02:54:16.865Z,87
2018-07-10T02:54:46.739Z,90
2018-07-10T02:55:46.960Z,97
2018-07-10T02:56:16.872Z,103
2018-07-10T02:56:46.863Z,107
2018-07-10T02:57:16.922Z,113
2018-07-10T02:57:46.974Z,120
2018-07-10T02:58:16.967Z,123
2018-07-10T02:58:47.023Z,127
2018-07-10T02:59:17.065Z,130
2018-07-10T02:59:47.019Z,133
2018-07-10T03:00:17.136Z,137
2018-07-10T03:00:47.225Z,140
2018-07-10T03:01:17.156Z,147
2018-07-10T03:01:47.170Z,150
2018-07-10T03:02:17.217Z,157
2018-07-10T03:02:47.240Z,160
2018-07-10T03:03:17.283Z,167
2018-07-10T03:03:47.287Z,173
2018-07-10T03:04:17.337Z,180
2018-07-10T03:04:47.356Z,190
2018-07-10T03:05:17.403Z,203
2018-07-10T03:05:47.530Z,213
2018-07-10T03:06:17.453Z,220
2018-07-10T03:06:47.532Z,227
2018-07-10T03:07:17.499Z,223
2018-07-10T03:08:17.585Z,230
2018-07-10T03:08:47.663Z,237
2018-07-10T03:09:17.624Z,240
2018-07-10T03:09:47.675Z,250
2018-07-10T03:10:17.709Z,273
2018-07-10T03:10:47.942Z,313
2018-07-10T03:11:17.765Z,373
2018-07-10T03:11:47.763Z,427
2018-07-10T03:12:17.811Z,463
2018-07-10T03:12:47.820Z,493
2018-07-10T03:13:17.889Z,513
2018-07-10T03:13:47.885Z,530
2018-07-10T03:14:17.946Z,537
2018-07-10T03:15:17.996Z,520
2018-07-10T03:15:48.127Z,510
2018-07-10T03:16:18.210Z,497
2018-07-10T03:16:48.061Z,487
2018-07-10T03:17:18.140Z,493
2018-07-10T03:17:48.160Z,507
2018-07-10T03:18:18.176Z,520
2018-07-10T03:18:48.238Z,543
2018-07-10T03:19:18.241Z,573
2018-07-10T03:19:48.309Z,607
2018-07-10T03:20:18.319Z,637
2018-07-10T03:20:48.362Z,653
2018-07-10T03:21:18.486Z,670
2018-07-10T03:21:48.635Z,687
2018-07-10T03:22:18.494Z,700
2018-07-10T03:22:48.500Z,707
2018-07-10T03:23:18.495Z,710
2018-07-10T03:23:48.520Z,720
2018-07-10T03:24:18.579Z,730
2018-07-10T03:24:48.600Z,747
2018-07-10T03:25:18.628Z,770
2018-07-10T03:25:48.676Z,790
2018-07-10T03:26:18.666Z,817
2018-07-10T03:26:48.814Z,847
2018-07-10T03:27:18.806Z,873
2018-07-10T03:27:48.735Z,903
2018-07-10T03:28:18.823Z,940
2018-07-10T03:28:48.804Z,973
2018-07-10T03:29:18.997Z,1013
2018-07-10T03:29:48.878Z,1063
2018-07-10T03:30:19.569Z,1113
2018-07-10T03:30:48.921Z,1177
2018-07-10T03:31:19.021Z,1240
2018-07-10T03:31:49.109Z,1307
2018-07-10T03:32:19.062Z,1387
2018-07-10T03:32:49.043Z,1463
2018-07-10T03:33:19.115Z,1527
2018-07-10T03:33:49.145Z,1597
2018-07-10T03:34:19.181Z,1663
2018-07-10T03:34:49.185Z,1700
2018-07-10T03:35:19.249Z,1707
2018-07-10T03:35:49.294Z,1710
2018-07-10T03:36:19.345Z,1730
2018-07-10T03:36:49.450Z,1753
2018-07-10T03:37:19.423Z,1763
2018-07-10T03:37:49.395Z,1770
2018-07-10T03:38:19.487Z,1773
2018-07-10T03:39:19.524Z,1783
2018-07-10T03:39:49.524Z,1800
2018-07-10T03:40:19.580Z,1843
2018-07-10T03:40:49.609Z,1910
2018-07-10T03:41:19.658Z,1980
2018-07-10T03:41:49.792Z,2060
2018-07-10T03:42:19.715Z,2147
2018-07-10T03:42:49.718Z,2263
2018-07-10T03:43:19.764Z,2390
2018-07-10T03:43:49.807Z,2537
2018-07-10T03:44:19.796Z,2683
2018-07-10T03:44:50.053Z,2820
2018-07-10T03:45:19.907Z,2947
2018-07-10T03:45:49.893Z,3063
2018-07-10T03:46:19.951Z,3183
2018-07-10T03:46:50.110Z,3280
2018-07-10T03:47:20.131Z,3373
2018-07-10T03:47:50.081Z,3457
2018-07-10T03:48:20.060Z,3510
2018-07-10T03:48:50.123Z,3573
2018-07-10T03:49:20.154Z,3667
2018-07-10T03:49:50.185Z,3740
2018-07-10T03:50:20.205Z,3807
2018-07-10T03:50:50.217Z,3887
2018-07-10T03:51:20.276Z,4020
2018-07-10T03:51:50.234Z,4147
2018-07-10T03:52:20.449Z,4297
2018-07-10T03:52:50.331Z,4467
2018-07-10T03:53:20.345Z,4627
2018-07-10T03:53:50.434Z,4797
2018-07-10T03:54:20.403Z,4963
2018-07-10T03:54:50.449Z,5090
2018-07-10T03:55:20.596Z,5140
2018-07-10T03:55:50.551Z,5167
2018-07-10T03:56:20.562Z,5247
2018-07-10T03:56:50.551Z,5337
2018-07-10T03:57:20.604Z,5423
2018-07-10T03:57:50.669Z,5483
2018-07-10T03:58:20.655Z,5497
2018-07-10T03:58:50.670Z,5483
2018-07-10T03:59:20.732Z,5537
2018-07-10T03:59:50.725Z,5657
2018-07-10T04:00:20.917Z,5733
2018-07-10T04:00:50.789Z,5710
2018-07-10T04:01:20.845Z,5567
2018-07-10T04:01:50.875Z,5463
2018-07-10T04:02:20.896Z,5400
2018-07-10T04:02:50.913Z,5340
2018-07-10T04:03:20.995Z,5247
2018-07-10T04:03:50.972Z,5150
2018-07-10T04:04:21.066Z,5117
2018-07-10T04:04:51.047Z,5097
2018-07-10T04:05:21.231Z,5093
2018-07-10T04:05:51.100Z,5123
2018-07-10T04:06:21.180Z,5173
2018-07-10T04:06:51.165Z,5147
2018-07-10T04:07:21.256Z,5123
2018-07-10T04:07:51.271Z,5117
2018-07-10T04:08:21.333Z,5113
2018-07-10T04:08:51.323Z,5117
2018-07-10T04:09:21.360Z,5150
2018-07-10T04:09:51.407Z,5253
2018-07-10T04:10:21.528Z,5367
2018-07-10T04:10:51.492Z,5487
2018-07-10T04:11:21.480Z,5557
2018-07-10T04:11:51.613Z,5547
2018-07-10T04:12:21.519Z,5493
2018-07-10T04:12:51.557Z,5423
2018-07-10T04:13:21.607Z,5330
2018-07-10T04:13:51.630Z,5293
2018-07-10T04:14:21.648Z,5260
2018-07-10T04:14:51.654Z,5240
2018-07-10T04:15:21.833Z,5193
2018-07-10T04:15:51.721Z,5160
2018-07-10T04:16:21.767Z,5103
2018-07-10T04:16:51.779Z,5007
2018-07-10T04:17:21.856Z,4907
2018-07-10T04:17:51.865Z,4820
2018-07-10T04:18:21.881Z,4770
2018-07-10T04:19:21.965Z,4807
2018-07-10T04:19:51.976Z,4850
2018-07-10T04:20:23.129Z,4940
2018-07-10T04:20:53.045Z,5010
2018-07-10T04:21:23.959Z,5070
2018-07-10T04:21:53.977Z,5117
2018-07-10T04:22:24.953Z,5153
2018-07-10T04:22:54.967Z,5243
2018-07-10T04:23:26.009Z,5290
2018-07-10T04:23:56.001Z,5313
2018-07-10T04:24:26.958Z,5403
2018-07-10T04:24:56.958Z,5440
2018-07-10T04:25:28.069Z,5537
2018-07-10T04:25:57.966Z,5583
2018-07-10T04:26:28.940Z,5623
2018-07-10T04:26:59.003Z,5680
2018-07-10T04:27:29.947Z,5720
2018-07-10T04:27:59.960Z,5743
2018-07-10T04:28:30.928Z,5770
2018-07-10T04:29:01.012Z,5847
2018-07-10T04:29:31.978Z,5970
2018-07-10T04:30:02.025Z,6110
2018-07-10T04:30:33.054Z,6287
2018-07-10T04:31:02.990Z,6503
2018-07-10T04:31:33.930Z,6733
2018-07-10T04:32:03.948Z,6953
2018-07-10T04:32:35.122Z,7180
2018-07-10T04:33:05.025Z,7423
2018-07-10T04:33:35.953Z,7693
2018-07-10T04:34:05.940Z,7867
2018-07-10T04:34:35.996Z,7797
2018-07-10T04:35:06.006Z,7503
2018-07-10T04:35:36.172Z,7143
2018-07-10T04:36:06.072Z,6913
2018-07-10T04:36:36.208Z,6907
2018-07-10T04:37:06.128Z,6923
2018-07-10T04:37:36.218Z,6953
2018-07-10T04:38:06.188Z,7037
2018-07-10T04:38:36.236Z,7193
2018-07-10T04:39:06.267Z,7327
2018-07-10T04:39:36.332Z,7433
2018-07-10T04:40:06.318Z,7467
2018-07-10T04:40:36.514Z,7397
2018-07-10T04:41:06.453Z,7363
2018-07-10T04:41:36.470Z,7190
2018-07-10T04:42:06.479Z,7153
2018-07-10T04:42:36.489Z,7203
2018-07-10T04:43:06.559Z,7157
2018-07-10T04:43:36.597Z,7040
2018-07-10T04:44:06.557Z,6933
2018-07-10T04:44:36.633Z,6887
2018-07-10T04:45:36.784Z,6917
2018-07-10T04:46:06.687Z,6930
2018-07-10T04:46:36.727Z,6977
2018-07-10T04:47:06.753Z,7033
2018-07-10T04:47:36.793Z,7077
2018-07-10T04:48:06.817Z,7150
2018-07-10T04:48:36.874Z,7193
2018-07-10T04:49:06.940Z,7177
2018-07-10T04:49:37.599Z,7110
2018-07-10T04:50:06.924Z,7083
2018-07-10T04:50:37.238Z,7090
2018-07-10T04:51:06.989Z,7113
2018-07-10T04:51:37.062Z,7150
2018-07-10T04:52:07.050Z,7173
2018-07-10T04:52:37.097Z,7127
2018-07-10T04:53:07.138Z,7057
2018-07-10T04:53:37.167Z,7007
2018-07-10T04:54:07.197Z,7017
2018-07-10T04:54:37.230Z,7040
2018-07-10T04:55:07.233Z,7063
2018-07-10T04:56:07.488Z,7087
2018-07-10T04:56:37.339Z,7117
2018-07-10T04:57:07.390Z,7167
2018-07-10T04:57:37.432Z,7243
2018-07-10T04:58:07.457Z,7223
2018-07-10T04:58:37.475Z,7180
2018-07-10T04:59:07.495Z,7147
2018-07-10T04:59:37.561Z,7100
2018-07-10T05:00:07.581Z,7093
2018-07-10T05:00:37.640Z,7103
2018-07-10T05:01:37.693Z,7090
2018-07-10T05:02:07.747Z,7097
2018-07-10T05:02:37.791Z,7127
2018-07-10T05:03:07.819Z,7167
2018-07-10T05:03:37.825Z,7217
2018-07-10T05:04:07.882Z,7313
2018-07-10T05:04:37.892Z,9713
2018-07-10T05:05:07.911Z,10553
2018-07-10T05:05:37.908Z,12360
2018-07-10T05:06:07.962Z,17910
2018-07-10T05:06:38.048Z,24003
2018-07-10T05:07:08.028Z,24447
2018-07-10T05:07:38.056Z,24677
2018-07-10T05:08:08.115Z,23800
2018-07-10T05:08:38.140Z,24973
2018-07-10T05:09:08.146Z,22430
2018-07-10T05:09:38.185Z,19440
2018-07-10T05:10:08.228Z,19697
2018-07-10T05:10:38.251Z,12100
2018-07-10T05:11:08.276Z,11123
2018-07-10T05:11:38.342Z,11587
2018-07-10T05:12:08.369Z,13160
2018-07-10T05:12:38.433Z,13063
2018-07-10T05:13:08.440Z,14630
2018-07-10T05:13:38.446Z,16300
2018-07-10T05:14:08.454Z,16173
2018-07-10T05:14:38.471Z,14690
2018-07-10T05:15:08.487Z,14403
2018-07-10T05:15:38.565Z,11953
2018-07-10T05:16:08.549Z,10047
2018-07-10T05:16:38.588Z,8817
2018-07-10T05:17:08.664Z,9353
2018-07-10T05:17:38.678Z,8643
2018-07-10T05:18:08.696Z,8540
2018-07-10T05:18:38.719Z,8147
2018-07-10T05:19:08.740Z,9727
2018-07-10T05:19:38.777Z,9050
2018-07-10T05:20:08.930Z,8047
2018-07-10T05:20:38.834Z,9360
2018-07-10T05:21:08.886Z,9677
2018-07-10T05:21:38.908Z,9120
2018-07-10T05:22:08.918Z,8667
2018-07-10T05:22:38.955Z,10347
2018-07-10T05:23:09.021Z,9230
2018-07-10T05:23:39.087Z,8623
2018-07-10T05:24:09.037Z,8687
2018-07-10T05:24:39.078Z,8210
2018-07-10T05:25:09.214Z,8330
2018-07-10T05:25:39.186Z,8403
2018-07-10T05:26:09.160Z,8570
2018-07-10T05:26:39.219Z,9820
2018-07-10T05:27:09.229Z,9793
2018-07-10T05:27:39.302Z,10347
2018-07-10T05:28:09.283Z,11403
2018-07-10T05:28:39.391Z,11270
2018-07-10T05:29:09.429Z,11317
2018-07-10T05:29:39.421Z,9173
2018-07-10T05:30:09.567Z,8667
2018-07-10T05:30:39.464Z,8873
2018-07-10T05:31:09.507Z,8943
2018-07-10T05:31:39.523Z,9893
2018-07-10T05:32:09.560Z,10453
2018-07-10T05:32:39.579Z,11097
2018-07-10T05:33:09.708Z,12157
2018-07-10T05:33:39.637Z,16223
2018-07-10T05:34:09.699Z,18257
2018-07-10T05:34:39.702Z,18113
2018-07-10T05:35:09.896Z,13850
2018-07-10T05:35:39.765Z,12607
2018-07-10T05:36:09.839Z,10123
2018-07-10T05:36:39.828Z,11173
2018-07-10T05:37:09.862Z,12680
2018-07-10T05:37:39.884Z,14480
2018-07-10T05:38:09.897Z,15477
2018-07-10T05:38:39.952Z,14520
2018-07-10T05:39:09.960Z,16613
2018-07-10T05:39:40.482Z,18487
2018-07-10T05:40:10.529Z,16103
2018-07-10T05:40:41.582Z,16193
2018-07-10T05:41:11.547Z,13850
2018-07-10T05:41:42.545Z,14607
2018-07-10T05:42:12.529Z,14497
2018-07-10T05:42:43.583Z,15860
2018-07-10T05:43:13.590Z,12790
2018-07-10T05:43:44.550Z,11387
2018-07-10T05:44:14.503Z,10773
2018-07-10T05:44:45.524Z,11213
2018-07-10T05:45:15.522Z,11940
2018-07-10T05:45:46.546Z,12937
2018-07-10T05:46:16.579Z,12890
2018-07-10T05:46:47.518Z,11997
2018-07-10T05:47:17.529Z,12423
2018-07-10T05:47:48.544Z,12017
2018-07-10T05:48:18.521Z,13720
2018-07-10T05:48:49.493Z,11837
2018-07-10T05:49:19.538Z,13640
2018-07-10T05:49:50.473Z,13867
2018-07-10T05:50:20.497Z,19477
2018-07-10T05:50:51.538Z,17257
2018-07-10T05:51:21.502Z,24340
2018-07-10T05:51:52.598Z,14387
2018-07-10T05:52:22.539Z,11263
2018-07-10T05:52:53.505Z,11397
2018-07-10T05:53:23.574Z,13583
2018-07-10T05:53:53.581Z,12643
2018-07-10T05:54:23.572Z,12533
2018-07-10T05:54:53.661Z,11527
2018-07-10T05:55:23.638Z,11870
2018-07-10T05:55:53.796Z,11930
2018-07-10T05:56:23.692Z,11893
2018-07-10T05:56:53.781Z,14343
2018-07-10T05:57:23.754Z,15050
2018-07-10T05:57:53.801Z,13367
2018-07-10T05:58:23.856Z,17880
2018-07-10T05:58:53.861Z,17890
2018-07-10T05:59:23.876Z,19440
2018-07-10T05:59:53.931Z,13103
2018-07-10T06:00:23.950Z,13303
2018-07-10T06:00:54.116Z,13207
2018-07-10T06:01:24.002Z,13500
2018-07-10T06:01:54.078Z,14137
2018-07-10T06:02:24.059Z,15337
2018-07-10T06:02:54.118Z,14197
2018-07-10T06:03:24.119Z,15823
2018-07-10T06:03:54.214Z,19700
2018-07-10T06:04:24.186Z,24003
2018-07-10T06:04:54.438Z,23447
2018-07-10T06:05:24.294Z,23460
2018-07-10T06:05:54.451Z,20510
2018-07-10T06:06:24.353Z,17210
2018-07-10T06:06:54.388Z,16530
2018-07-10T06:07:24.425Z,18180
2018-07-10T06:07:54.428Z,21290
2018-07-10T06:08:24.465Z,25733
2018-07-10T06:08:54.512Z,30653
2018-07-10T06:09:24.520Z,35237
2018-07-10T06:09:54.550Z,38727
2018-07-10T06:10:24.612Z,40583
2018-07-10T06:10:55.119Z,39380
2018-07-10T06:11:24.619Z,36443
2018-07-10T06:11:54.669Z,33017
2018-07-10T06:12:24.713Z,28967
2018-07-10T06:12:54.725Z,25043
2018-07-10T06:13:24.746Z,22357
2018-07-10T06:13:54.809Z,20770
2018-07-10T06:14:24.801Z,20947
2018-07-10T06:14:54.863Z,21980
2018-07-10T06:15:24.877Z,23897
2018-07-10T06:15:55.042Z,26030
2018-07-10T06:16:25.185Z,27853
2018-07-10T06:16:54.971Z,29063
2018-07-10T06:17:25.034Z,29577
2018-07-10T06:17:55.042Z,30660
2018-07-10T06:18:25.090Z,32570
2018-07-10T06:18:55.091Z,33497
2018-07-10T06:19:25.116Z,32050
2018-07-10T06:19:55.193Z,29403
2018-07-10T06:20:25.177Z,26293
2018-07-10T06:20:55.237Z,23480
2018-07-10T06:21:25.375Z,21453
2018-07-10T06:21:55.318Z,19703
2018-07-10T06:22:25.393Z,18227
2018-07-10T06:22:55.391Z,17517
2018-07-10T06:23:25.349Z,18327
2018-07-10T06:23:55.446Z,20977
2018-07-10T06:24:25.480Z,23830
2018-07-10T06:24:55.516Z,27127
2018-07-10T06:25:25.523Z,30507
2018-07-10T06:25:55.589Z,33963
2018-07-10T06:26:25.735Z,36863
2018-07-10T06:26:55.648Z,37540
2018-07-10T06:27:25.658Z,35957
2018-07-10T06:27:55.773Z,33263
2018-07-10T06:28:25.717Z,30823
2018-07-10T06:28:55.732Z,29347
2018-07-10T06:29:25.792Z,30057
2018-07-10T06:29:55.813Z,33103
2018-07-10T06:30:25.856Z,34390
2018-07-10T06:30:55.854Z,34990
2018-07-10T06:31:25.997Z,34970
2018-07-10T06:31:55.964Z,34240
2018-07-10T06:32:26.013Z,33607
2018-07-10T06:32:55.985Z,33007
2018-07-10T06:33:26.038Z,32690
2018-07-10T06:33:56.044Z,32017
2018-07-10T06:34:26.117Z,30853
2018-07-10T06:34:56.231Z,30117
2018-07-10T06:35:26.153Z,30260
2018-07-10T06:35:56.179Z,30853
2018-07-10T06:36:26.391Z,31400
2018-07-10T06:36:56.225Z,31900
2018-07-10T06:37:26.256Z,32870
2018-07-10T06:37:56.305Z,34470
2018-07-10T06:38:26.337Z,36487
2018-07-10T06:38:56.373Z,38687
2018-07-10T06:39:26.372Z,40463
2018-07-10T06:39:56.414Z,41750
2018-07-10T06:40:26.435Z,42027
2018-07-10T06:40:56.477Z,41600
2018-07-10T06:41:26.595Z,41610
2018-07-10T06:41:56.541Z,41297
2018-07-10T06:42:26.571Z,40883
2018-07-10T06:42:56.601Z,40307
2018-07-10T06:43:26.609Z,40197
2018-07-10T06:43:56.641Z,40100
2018-07-10T06:44:26.673Z,39787
2018-07-10T06:44:56.719Z,39723
2018-07-10T06:45:26.731Z,40110
2018-07-10T06:45:56.758Z,40307
2018-07-10T06:46:26.893Z,41297
2018-07-10T06:46:56.837Z,42670
2018-07-10T06:47:26.844Z,44980
2018-07-10T06:47:56.883Z,47030
2018-07-10T06:48:26.896Z,48530
2018-07-10T06:48:56.940Z,50273
2018-07-10T06:49:26.958Z,51200
2018-07-10T06:49:57.037Z,50953
2018-07-10T06:50:27.015Z,47927
2018-07-10T06:50:57.110Z,43720
2018-07-10T06:51:27.335Z,39313
2018-07-10T06:51:57.376Z,37420
2018-07-10T06:52:27.563Z,37790
2018-07-10T06:52:58.749Z,38397
2018-07-10T06:53:28.587Z,39270
2018-07-10T06:53:59.410Z,41583
2018-07-10T06:54:29.408Z,44847
2018-07-10T06:55:01.556Z,46770
2018-07-10T06:55:30.426Z,49327
2018-07-10T06:56:01.349Z,51167
2018-07-10T06:56:31.917Z,51177
2018-07-10T06:57:02.379Z,48657
2018-07-10T06:57:32.462Z,45377
2018-07-10T06:58:03.396Z,42043
2018-07-10T06:58:33.418Z,40717
2018-07-10T06:59:04.444Z,40337
2018-07-10T06:59:34.419Z,39340
2018-07-10T07:00:05.396Z,37530
2018-07-10T07:00:35.425Z,35780
2018-07-10T07:01:06.380Z,33527
2018-07-10T07:01:36.505Z,31593
2018-07-10T07:02:07.411Z,31947
2018-07-10T07:02:37.396Z,33413
2018-07-10T07:03:08.372Z,36433
2018-07-10T07:03:38.360Z,39320
2018-07-10T07:04:09.373Z,41720
2018-07-10T07:04:39.411Z,42737
2018-07-10T07:05:10.370Z,43053
2018-07-10T07:05:40.349Z,42740
2018-07-10T07:06:11.371Z,42067
2018-07-10T07:06:41.535Z,41210
2018-07-10T07:07:12.328Z,39873
2018-07-10T07:07:42.402Z,38560
2018-07-10T07:08:13.322Z,37403
2018-07-10T07:08:43.368Z,36433
2018-07-10T07:09:14.379Z,35093
2018-07-10T07:09:44.414Z,33830
2018-07-10T07:10:15.438Z,32123
2018-07-10T07:10:45.374Z,29943
2018-07-10T07:11:16.384Z,27513
2018-07-10T07:11:46.429Z,25513
2018-07-10T07:12:17.380Z,23947
2018-07-10T07:12:47.397Z,23550
2018-07-10T07:13:18.377Z,23287
2018-07-10T07:13:48.422Z,23163
2018-07-10T07:14:19.353Z,23227
2018-07-10T07:14:49.404Z,23550
2018-07-10T07:15:20.368Z,24280
2018-07-10T07:15:50.451Z,25450
2018-07-10T07:16:21.361Z,27567
2018-07-10T07:16:51.368Z,29610
2018-07-10T07:17:22.352Z,31203
2018-07-10T07:17:52.391Z,31560
2018-07-10T07:18:23.371Z,31843
2018-07-10T07:18:53.371Z,30263
2018-07-10T07:19:24.345Z,29400
2018-07-10T07:19:54.422Z,28427
2018-07-10T07:20:25.362Z,25967
2018-07-10T07:20:55.379Z,23600
2018-07-10T07:21:26.386Z,21793
2018-07-10T07:21:56.388Z,20667
2018-07-10T07:22:27.370Z,19940
2018-07-10T07:22:57.358Z,19950
2018-07-10T07:23:28.353Z,20187
2018-07-10T07:23:58.379Z,20883
2018-07-10T07:24:29.384Z,21933
2018-07-10T07:24:59.392Z,23253
2018-07-10T07:25:29.401Z,25460
2018-07-10T07:25:59.393Z,28797
2018-07-10T07:26:30.422Z,31680
2018-07-10T07:27:01.100Z,34300
2018-07-10T07:27:31.340Z,37223
2018-07-10T07:28:01.486Z,40870
2018-07-10T07:28:32.367Z,43793
2018-07-10T07:29:02.374Z,45660
2018-07-10T07:29:33.377Z,46433
2018-07-10T07:30:03.491Z,46270
2018-07-10T07:30:34.407Z,46083
2018-07-10T07:31:04.388Z,45493
2018-07-10T07:31:35.387Z,44373
2018-07-10T07:32:05.394Z,43463
2018-07-10T07:32:36.374Z,43153
2018-07-10T07:33:06.381Z,43513
2018-07-10T07:33:37.343Z,44687
2018-07-10T07:34:07.316Z,47410
2018-07-10T07:34:38.310Z,50613
2018-07-10T07:35:08.403Z,51643
2018-07-10T07:35:39.310Z,49997
2018-07-10T07:36:09.363Z,48687
2018-07-10T07:36:40.312Z,48340
2018-07-10T07:37:10.337Z,48647
2018-07-10T07:37:41.301Z,48947
2018-07-10T07:38:11.339Z,48700
2018-07-10T07:38:42.299Z,46717
2018-07-10T07:39:12.313Z,43583
2018-07-10T07:39:43.342Z,39780
2018-07-10T07:40:13.297Z,39600
2018-07-10T07:40:44.275Z,39753
2018-07-10T07:41:14.320Z,42683
2018-07-10T07:41:45.325Z,46633
2018-07-10T07:42:15.355Z,48063
2018-07-10T07:42:46.267Z,47627
2018-07-10T07:43:16.306Z,46540
2018-07-10T07:43:47.360Z,48057
2018-07-10T07:44:17.322Z,48370
2018-07-10T07:44:48.319Z,46717
2018-07-10T07:45:18.410Z,44727
2018-07-10T07:45:49.306Z,43387
2018-07-10T07:46:19.549Z,42003
2018-07-10T07:46:50.324Z,43317
2018-07-10T07:47:20.323Z,42750
2018-07-10T07:47:51.269Z,41967
2018-07-10T07:48:21.306Z,42100
2018-07-10T07:48:51.673Z,42457
2018-07-10T07:49:21.657Z,41660
2018-07-10T07:49:52.707Z,40800
2018-07-10T07:50:22.831Z,40700
2018-07-10T07:50:53.686Z,41630
2018-07-10T07:51:23.688Z,42010
2018-07-10T07:51:53.724Z,42477
2018-07-10T07:52:23.781Z,43433
2018-07-10T07:52:54.256Z,43493
2018-07-10T07:53:24.246Z,41993
2018-07-10T07:53:54.304Z,42437
2018-07-10T07:54:24.320Z,45710
2018-07-10T07:54:54.409Z,47250
2018-07-10T07:55:24.615Z,45787
2018-07-10T07:55:54.450Z,44407
2018-07-10T07:56:24.461Z,44330
2018-07-10T07:56:54.481Z,45423
2018-07-10T07:57:24.577Z,47247
2018-07-10T07:57:54.556Z,49183
2018-07-10T07:58:24.633Z,49880
2018-07-10T07:58:54.601Z,50487
2018-07-10T07:59:24.643Z,49917
2018-07-10T07:59:54.660Z,49570
2018-07-10T08:00:24.823Z,49890
2018-07-10T08:00:54.706Z,50760
2018-07-10T08:01:24.729Z,50940
2018-07-10T08:01:54.778Z,49697
2018-07-10T08:02:24.800Z,46213
2018-07-10T08:02:54.835Z,43763
2018-07-10T08:03:24.854Z,42470
2018-07-10T08:03:54.894Z,41250
2018-07-10T08:04:24.911Z,40037
2018-07-10T08:04:54.960Z,38467
2018-07-10T08:05:25.095Z,37147
2018-07-10T08:05:55.016Z,37663
2018-07-10T08:06:25.044Z,37680
2018-07-10T08:06:55.075Z,37407
2018-07-10T08:07:25.110Z,36873
2018-07-10T08:07:55.145Z,35857
2018-07-10T08:08:25.157Z,34607
2018-07-10T08:08:55.227Z,32740
2018-07-10T08:09:25.216Z,30667
2018-07-10T08:09:55.292Z,29097
2018-07-10T08:10:25.412Z,28170
2018-07-10T08:10:55.353Z,27307
2018-07-10T08:11:25.345Z,26503
2018-07-10T08:11:55.433Z,25583
2018-07-10T08:12:25.449Z,25033
2018-07-10T08:12:55.529Z,23983
2018-07-10T08:13:25.534Z,23393
2018-07-10T08:13:55.538Z,23703
2018-07-10T08:14:25.560Z,23887
2018-07-10T08:14:55.641Z,23907
2018-07-10T08:15:25.896Z,24430
2018-07-10T08:15:55.736Z,25543
2018-07-10T08:16:25.682Z,26713
2018-07-10T08:16:55.767Z,26103
2018-07-10T08:17:25.775Z,25920
2018-07-10T08:17:55.821Z,25690
2018-07-10T08:18:25.884Z,26657
2018-07-10T08:18:55.835Z,26760
2018-07-10T08:19:25.855Z,26110
2018-07-10T08:19:55.894Z,25393
2018-07-10T08:20:26.216Z,24997
2018-07-10T08:20:55.957Z,24537
2018-07-10T08:21:26.042Z,24650
2018-07-10T08:21:56.028Z,25560
2018-07-10T08:22:26.111Z,26920
2018-07-10T08:22:56.122Z,28597
2018-07-10T08:23:26.202Z,30583
2018-07-10T08:23:56.549Z,33037
2018-07-10T08:24:26.564Z,35487
2018-07-10T08:24:57.542Z,38510
2018-07-10T08:25:27.662Z,40533
2018-07-10T08:25:58.559Z,42767
2018-07-10T08:26:28.513Z,44660
2018-07-10T08:26:59.559Z,46927
2018-07-10T08:27:29.541Z,48393
2018-07-10T08:28:01.027Z,50563
2018-07-10T08:28:30.532Z,51890
2018-07-10T08:29:02.659Z,52267
2018-07-10T08:29:31.574Z,47960
2018-07-10T08:30:02.563Z,46153
2018-07-10T08:30:32.634Z,44910
2018-07-10T08:31:03.728Z,43967
2018-07-10T08:31:33.540Z,43947
2018-07-10T08:32:04.540Z,44447
2018-07-10T08:32:34.521Z,45067
2018-07-10T08:33:05.515Z,45563
2018-07-10T08:33:35.633Z,45730
2018-07-10T08:34:06.619Z,47013
2018-07-10T08:34:36.532Z,48440
2018-07-10T08:35:07.775Z,49587
2018-07-10T08:35:37.669Z,51393
2018-07-10T08:36:08.564Z,52277
2018-07-10T08:36:38.565Z,52660
2018-07-10T08:37:09.499Z,53080
2018-07-10T08:37:39.536Z,53157
2018-07-10T08:38:10.548Z,53713
2018-07-10T08:38:40.483Z,54947
2018-07-10T08:39:11.505Z,56383
2018-07-10T08:39:41.543Z,57577
2018-07-10T08:40:12.531Z,57847
2018-07-10T08:40:43.023Z,59320
2018-07-10T08:41:13.517Z,61773
2018-07-10T08:41:43.536Z,63273
2018-07-10T08:42:14.540Z,64210
2018-07-10T08:42:44.526Z,63253
2018-07-10T08:43:14.617Z,62827
2018-07-10T08:43:44.583Z,62617
2018-07-10T08:44:14.624Z,60337
2018-07-10T08:44:44.695Z,57893
2018-07-10T08:45:14.705Z,55000
2018-07-10T08:45:44.826Z,51980
2018-07-10T08:46:14.747Z,49047
2018-07-10T08:46:44.786Z,46637
2018-07-10T08:47:14.819Z,44280
2018-07-10T08:47:44.827Z,42687
2018-07-10T08:48:14.874Z,41603
2018-07-10T08:48:44.884Z,41530
2018-07-10T08:49:14.933Z,41157
2018-07-10T08:49:44.965Z,41040
2018-07-10T08:50:14.996Z,39470
2018-07-10T08:50:45.199Z,39437
2018-07-10T08:51:15.058Z,39423
2018-07-10T08:51:45.080Z,39327
2018-07-10T08:52:15.122Z,38903
2018-07-10T08:52:45.135Z,38320
2018-07-10T08:53:15.181Z,37743
2018-07-10T08:53:45.224Z,36950
2018-07-10T08:54:15.258Z,36757
2018-07-10T08:54:45.333Z,36827
2018-07-10T08:55:15.325Z,37720
2018-07-10T08:55:45.630Z,37830
2018-07-10T08:56:15.398Z,38373
2018-07-10T08:56:45.393Z,38990
2018-07-10T08:57:15.450Z,39670
2018-07-10T08:57:45.468Z,40067
2018-07-10T08:58:15.526Z,40860
2018-07-10T08:58:45.528Z,41867
2018-07-10T08:59:15.601Z,43127
2018-07-10T08:59:45.759Z,44430
2018-07-10T09:00:15.668Z,45750
2018-07-10T09:00:45.759Z,46970
2018-07-10T09:01:15.671Z,48080
2018-07-10T09:01:45.705Z,49293
2018-07-10T09:02:15.768Z,50527
2018-07-10T09:02:45.771Z,51537
2018-07-10T09:03:16.245Z,52473
2018-07-10T09:03:46.226Z,52913
2018-07-10T09:04:17.282Z,52763
2018-07-10T09:04:47.235Z,52410
2018-07-10T09:05:18.259Z,53393
2018-07-10T09:05:48.343Z,53160
2018-07-10T09:06:19.191Z,53033
2018-07-10T09:06:49.254Z,53523
2018-07-10T09:07:20.317Z,54323
2018-07-10T09:07:50.229Z,54267
2018-07-10T09:08:21.226Z,54357
2018-07-10T09:08:51.284Z,54883
2018-07-10T09:09:22.206Z,55823
2018-07-10T09:09:52.264Z,58163
2018-07-10T09:10:22.252Z,59460
2018-07-10T09:10:52.580Z,60337
2018-07-10T09:11:22.313Z,62477
2018-07-10T09:11:52.374Z,65730
2018-07-10T09:12:22.437Z,68740
2018-07-10T09:12:52.459Z,72687
2018-07-10T09:13:22.580Z,76307
2018-07-10T09:13:52.689Z,79327
2018-07-10T09:14:23.592Z,79267
2018-07-10T09:14:53.576Z,81690
2018-07-10T09:15:24.638Z,84983
2018-07-10T09:15:54.846Z,89297
2018-07-10T09:16:25.599Z,95527
2018-07-10T09:16:55.604Z,95630
2018-07-10T09:17:26.568Z,97330
2018-07-10T09:17:56.590Z,102717
2018-07-10T09:18:27.571Z,110407
2018-07-10T09:18:57.628Z,113097
2018-07-10T09:19:28.567Z,119687
2018-07-10T09:19:58.565Z,113747
2018-07-10T09:20:29.553Z,127507
2018-07-10T09:21:00.069Z,132613
2018-07-10T09:21:30.585Z,131603